Time;durP1;ratioP1;P1;durP2;ratioP2;P2;SDS_P1;SDS_P2;PMS_P1;PMS_P2;Temp;Humidity;BMP_temperature;BMP_pressure;BME280_temperature;BME280_humidity;BME280_pressure;Samples;Min_cycle;Max_cycle;Signal;HPM_P1;HPM_P2
2021/07/24 00:00:59;;;;;;;8.50;5.95;;;16.90;80.80;;;;;;5000858;28;20513;-70
2021/07/24 00:03:26;;;;;;;12.07;5.45;;;17.00;80.80;;;;;;5000522;28;20029;-70
2021/07/24 00:05:52;;;;;;;9.85;5.97;;;17.10;81.20;;;;;;4998447;28;20058;-70
2021/07/24 00:08:18;;;;;;;7.43;5.68;;;17.30;80.70;;;;;;5001075;28;21901;-70
2021/07/24 00:10:43;;;;;;;7.03;5.75;;;17.60;80.00;;;;;;5003076;28;20121;-70
2021/07/24 00:13:09;;;;;;;4.97;4.00;;;17.70;79.70;;;;;;5001657;28;20033;-70
2021/07/24 00:15:34;;;;;;;5.97;5.28;;;17.70;79.80;;;;;;5003537;28;20041;-70
2021/07/24 00:18:00;;;;;;;8.00;4.80;;;17.80;79.80;;;;;;5002482;28;20022;-71
2021/07/24 00:20:26;;;;;;;4.75;4.32;;;17.80;79.20;;;;;;5002200;28;20484;-71
2021/07/24 00:22:51;;;;;;;7.68;5.75;;;17.80;79.70;;;;;;4999893;28;20025;-71
2021/07/24 00:25:17;;;;;;;6.10;5.10;;;17.90;79.30;;;;;;4999926;28;20029;-71
2021/07/24 00:27:43;;;;;;;6.32;4.88;;;17.70;78.90;;;;;;5002242;28;20816;-71
2021/07/24 00:30:08;;;;;;;6.50;4.70;;;17.60;79.30;;;;;;5002082;28;20045;-71
2021/07/24 00:32:34;;;;;;;6.60;4.38;;;17.40;79.30;;;;;;5001413;28;20034;-71
2021/07/24 00:35:00;;;;;;;6.20;5.50;;;17.20;79.70;;;;;;5001622;28;20479;-71
2021/07/24 00:37:25;;;;;;;9.70;6.57;;;17.20;80.00;;;;;;5002342;28;20037;-71
2021/07/24 00:39:51;;;;;;;6.97;3.80;;;17.30;79.50;;;;;;5001485;28;20021;-71
2021/07/24 00:42:25;;;;;;;7.28;6.10;;;17.20;79.60;;;;;;4999603;28;20026;-71
2021/07/24 00:44:52;;;;;;;6.53;5.10;;;17.10;79.80;;;;;;5001348;28;20037;-71
2021/07/24 00:47:20;;;;;;;10.40;4.82;;;17.10;80.00;;;;;;5002213;28;20184;-71
2021/07/24 00:49:48;;;;;;;6.18;3.88;;;17.00;80.60;;;;;;4999645;28;20018;-71
2021/07/24 00:52:14;;;;;;;6.68;5.55;;;17.10;80.90;;;;;;5002054;28;20045;-71
2021/07/24 00:54:40;;;;;;;8.73;5.75;;;17.10;80.50;;;;;;5001456;28;20100;-71
2021/07/24 00:57:06;;;;;;;6.97;4.72;;;17.20;80.30;;;;;;5000635;28;20065;-71
2021/07/24 00:59:36;;;;;;;9.73;5.15;;;17.30;80.40;;;;;;4999143;28;20049;-71
2021/07/24 01:02:03;;;;;;;7.78;6.00;;;17.40;80.00;;;;;;5000310;28;20424;-71
2021/07/24 01:04:29;;;;;;;5.25;4.43;;;17.30;80.00;;;;;;5001620;28;20022;-71
2021/07/24 01:06:55;;;;;;;7.25;5.03;;;17.40;79.80;;;;;;5000937;28;20409;-71
2021/07/24 01:09:26;;;;;;;8.75;4.75;;;17.10;79.80;;;;;;5001568;28;20062;-71
2021/07/24 01:11:52;;;;;;;5.78;4.68;;;16.90;80.20;;;;;;4966902;23;1031145;-72
2021/07/24 01:14:18;;;;;;;7.35;5.82;;;16.80;80.60;;;;;;4989056;28;20465;-72
2021/07/24 01:16:45;;;;;;;5.95;5.32;;;16.70;80.70;;;;;;4990137;28;20058;-72
2021/07/24 01:19:11;;;;;;;5.75;4.45;;;16.70;81.20;;;;;;4989724;28;20044;-72
2021/07/24 01:21:37;;;;;;;6.60;4.65;;;16.60;81.30;;;;;;4990868;28;21057;-72
2021/07/24 01:24:02;;;;;;;8.23;6.22;;;16.50;81.70;;;;;;4962387;28;20125;-72
2021/07/24 01:26:30;;;;;;;6.50;4.82;;;16.40;81.80;;;;;;4978427;28;20042;-72
2021/07/24 01:28:56;;;;;;;8.13;6.70;;;16.50;82.20;;;;;;4979919;28;20419;-72
2021/07/24 01:31:23;;;;;;;6.43;3.97;;;16.50;82.10;;;;;;4979952;28;20035;-72
2021/07/24 01:33:49;;;;;;;9.18;6.68;;;16.50;82.30;;;;;;4979485;28;20051;-72
2021/07/24 01:36:14;;;;;;;7.50;5.03;;;16.40;82.10;;;;;;4979688;28;20042;-72
2021/07/24 01:38:41;;;;;;;9.88;5.63;;;16.50;82.50;;;;;;4980194;28;20405;-72
2021/07/24 01:41:11;;;;;;;6.35;5.70;;;16.40;82.40;;;;;;4978491;28;20488;-72
2021/07/24 01:43:38;;;;;;;7.50;5.93;;;16.30;82.30;;;;;;4979690;28;20031;-72
2021/07/24 01:46:04;;;;;;;6.10;4.75;;;16.30;82.30;;;;;;4979788;28;20109;-72
2021/07/24 01:48:35;;;;;;;8.70;6.72;;;16.20;82.60;;;;;;4977862;28;20034;-72
2021/07/24 01:53:47;;;;;;;9.52;5.70;;;16.30;82.90;;;;;;4980919;28;20034;-72
2021/07/24 01:56:15;;;;;;;7.18;6.18;;;16.30;82.80;;;;;;4979109;28;20121;-72
2021/07/24 01:58:41;;;;;;;8.55;6.55;;;16.30;82.40;;;;;;4978413;28;20096;-72
2021/07/24 02:01:07;;;;;;;6.82;5.70;;;16.40;82.60;;;;;;4962137;28;20482;-72
2021/07/24 02:03:38;;;;;;;7.95;6.15;;;16.40;82.60;;;;;;4979619;28;20040;-72
2021/07/24 02:06:04;;;;;;;7.95;5.25;;;16.50;82.30;;;;;;4980494;28;20030;-72
2021/07/24 02:08:32;;;;;;;7.40;5.32;;;16.70;82.30;;;;;;4965016;28;20404;-72
2021/07/24 02:11:00;;;;;;;6.18;5.13;;;16.70;82.20;;;;;;4979357;28;20133;-72
2021/07/24 02:13:26;;;;;;;7.80;5.82;;;16.50;82.20;;;;;;4977688;28;20343;-72
2021/07/24 02:15:52;;;;;;;9.98;6.82;;;16.50;82.40;;;;;;4980042;28;20105;-72
2021/07/24 02:18:19;;;;;;;8.80;6.07;;;16.50;82.20;;;;;;4976923;28;20031;-72
2021/07/24 02:20:45;;;;;;;9.43;6.97;;;16.50;82.40;;;;;;4980823;28;20026;-72
2021/07/24 02:23:11;;;;;;;8.38;6.45;;;16.60;82.30;;;;;;4962488;28;20034;-72
2021/07/24 02:25:37;;;;;;;6.63;5.25;;;16.70;82.00;;;;;;4980308;28;20470;-72
2021/07/24 02:28:02;;;;;;;5.40;4.88;;;16.70;82.10;;;;;;4980031;28;20134;-73
2021/07/24 02:30:28;;;;;;;7.93;5.85;;;16.70;82.00;;;;;;4977537;28;20124;-72
2021/07/24 02:32:53;;;;;;;13.88;6.70;;;16.70;81.90;;;;;;4978898;28;20018;-72
2021/07/24 02:35:19;;;;;;;8.40;5.32;;;16.70;82.00;;;;;;4978403;28;20077;-72
2021/07/24 02:37:44;;;;;;;8.77;7.25;;;16.60;82.20;;;;;;4980250;28;20038;-72
2021/07/24 02:40:10;;;;;;;8.55;5.68;;;16.40;81.90;;;;;;4979834;28;20068;-72
2021/07/24 02:42:36;;;;;;;8.13;6.13;;;16.40;82.20;;;;;;4962698;28;20054;-72
2021/07/24 02:45:02;;;;;;;6.25;5.50;;;16.20;82.50;;;;;;4981182;28;20043;-72
2021/07/24 02:47:27;;;;;;;9.85;5.57;;;16.20;82.80;;;;;;4977484;28;20034;-72
2021/07/24 02:49:53;;;;;;;7.47;4.47;;;16.20;83.10;;;;;;4979796;28;20033;-72
2021/07/24 02:52:18;;;;;;;6.70;4.93;;;16.10;83.20;;;;;;4988624;28;20441;-73
2021/07/24 02:54:44;;;;;;;11.95;7.95;;;16.20;83.90;;;;;;5006800;28;20041;-72
2021/07/24 02:57:09;;;;;;;9.13;6.60;;;16.20;83.10;;;;;;4971936;28;20043;-72
2021/07/24 02:59:35;;;;;;;12.30;5.90;;;16.20;83.20;;;;;;4969173;28;20038;-72
2021/07/24 03:02:00;;;;;;;6.32;4.78;;;16.20;83.40;;;;;;4988702;28;20066;-72
2021/07/24 03:04:26;;;;;;;6.68;6.05;;;16.20;83.10;;;;;;4989466;28;20065;-72
2021/07/24 03:06:51;;;;;;;10.13;5.40;;;16.10;83.30;;;;;;4986294;28;20022;-72
2021/07/24 03:09:17;;;;;;;8.75;5.38;;;15.90;83.30;;;;;;5000675;28;20552;-72
2021/07/24 03:11:43;;;;;;;6.30;4.78;;;15.80;84.10;;;;;;4987430;28;20521;-72
2021/07/24 03:14:09;;;;;;;6.45;5.15;;;15.70;84.40;;;;;;4982914;28;20042;-72
2021/07/24 03:16:34;;;;;;;6.13;4.97;;;15.60;84.60;;;;;;4978745;28;20499;-72
2021/07/24 03:19:01;;;;;;;12.35;6.88;;;15.50;85.10;;;;;;4976208;28;20027;-73
2021/07/24 03:21:26;;;;;;;6.50;4.22;;;15.50;85.50;;;;;;4977562;28;20034;-72
2021/07/24 03:23:52;;;;;;;7.47;5.68;;;15.40;85.70;;;;;;4979710;28;20603;-72
2021/07/24 03:26:18;;;;;;;5.72;4.38;;;15.30;86.20;;;;;;4979217;28;20161;-72
2021/07/24 03:28:44;;;;;;;7.53;5.93;;;15.30;86.50;;;;;;4980477;28;20146;-72
2021/07/24 03:31:09;;;;;;;8.85;4.70;;;15.30;86.80;;;;;;4982695;28;20038;-72
2021/07/24 03:33:35;;;;;;;6.45;4.43;;;15.30;87.00;;;;;;4981081;28;20039;-72
2021/07/24 03:36:00;;;;;;;5.35;4.38;;;15.30;87.00;;;;;;4980790;28;20549;-73
2021/07/24 03:38:27;;;;;;;10.05;4.47;;;15.30;87.10;;;;;;4980437;28;20085;-73
2021/07/24 03:40:53;;;;;;;6.95;5.38;;;15.30;87.10;;;;;;4995302;28;20033;-72
2021/07/24 03:43:18;;;;;;;12.82;6.13;;;15.30;87.30;;;;;;4982572;28;20027;-72
2021/07/24 03:45:44;;;;;;;11.43;9.15;;;15.20;87.30;;;;;;4983226;28;20189;-73
2021/07/24 03:48:09;;;;;;;10.10;7.00;;;15.40;87.40;;;;;;4980694;28;20050;-73
2021/07/24 03:50:35;;;;;;;9.75;6.07;;;15.50;87.50;;;;;;4983812;28;20035;-73
2021/07/24 03:53:01;;;;;;;7.30;5.30;;;15.80;87.10;;;;;;4980801;28;20030;-72
2021/07/24 03:55:26;;;;;;;;;;;15.80;86.80;;;;;;4966536;28;20022;-72
2021/07/24 03:57:55;;;;;;;9.48;5.90;;;15.90;86.70;;;;;;4980065;28;20364;-72
2021/07/24 04:00:22;;;;;;;11.05;5.90;;;16.00;86.50;;;;;;4980466;28;20037;-72
2021/07/24 04:02:47;;;;;;;7.65;6.53;;;16.00;86.40;;;;;;4981200;28;20018;-72
2021/07/24 04:05:13;;;;;;;8.68;5.85;;;16.10;86.20;;;;;;4982528;28;20472;-72
2021/07/24 04:07:39;;;;;;;;;;;16.30;86.00;;;;;;4981884;28;20022;-72
2021/07/24 04:10:07;;;;;;;5.75;4.97;;;16.60;86.10;;;;;;4980441;28;20004;-72
2021/07/24 04:12:34;;;;;;;10.90;5.75;;;16.80;85.60;;;;;;4982099;28;20489;-72
2021/07/24 04:15:00;;;;;;;7.68;6.13;;;16.80;85.30;;;;;;4981464;28;20161;-72
2021/07/24 04:17:26;;;;;;;7.28;4.90;;;16.80;85.10;;;;;;4981852;28;20109;-73
2021/07/24 04:19:54;;;;;;;7.57;4.55;;;17.00;84.80;;;;;;4979505;28;20034;-72
2021/07/24 04:22:19;;;;;;;9.02;5.88;;;17.20;84.50;;;;;;4982440;28;20030;-73
2021/07/24 04:24:45;;;;;;;7.43;4.03;;;17.30;84.00;;;;;;4996338;28;20482;-72
2021/07/24 04:27:10;;;;;;;7.95;4.97;;;17.40;83.40;;;;;;4965199;28;20525;-72
2021/07/24 04:29:36;;;;;;;7.97;5.85;;;17.60;83.00;;;;;;4980690;28;20979;-72
2021/07/24 04:32:02;;;;;;;6.63;4.28;;;17.80;82.60;;;;;;4979873;28;20069;-72
2021/07/24 04:34:29;;;;;;;5.38;4.60;;;18.10;82.40;;;;;;4980571;28;20057;-72
2021/07/24 04:36:55;;;;;;;7.18;5.00;;;18.40;82.20;;;;;;4982406;28;20509;-72
2021/07/24 04:39:20;;;;;;;8.18;5.22;;;18.50;81.50;;;;;;4979359;28;20046;-72
2021/07/24 04:41:46;;;;;;;7.65;4.78;;;18.50;80.80;;;;;;4978945;28;20437;-72
2021/07/24 04:44:11;;;;;;;7.20;5.53;;;18.60;80.70;;;;;;4981032;28;20034;-72
2021/07/24 04:46:37;;;;;;;5.85;4.65;;;18.70;80.10;;;;;;4981677;28;20477;-72
2021/07/24 04:49:02;;;;;;;9.98;5.13;;;18.80;80.00;;;;;;4978127;28;20034;-72
2021/07/24 04:51:29;;;;;;;7.80;5.03;;;19.00;79.50;;;;;;4982596;28;20358;-72
2021/07/24 04:53:55;;;;;;;6.68;4.82;;;19.10;79.00;;;;;;4976140;28;20333;-73
2021/07/24 04:56:21;;;;;;;9.07;4.25;;;19.40;78.30;;;;;;4974780;28;20034;-72
2021/07/24 04:58:48;;;;;;;10.18;5.72;;;19.50;77.70;;;;;;4981347;28;20485;-72
2021/07/24 05:01:14;;;;;;;5.63;4.32;;;19.50;76.80;;;;;;4978596;28;20034;-72
2021/07/24 05:03:40;;;;;;;10.13;6.38;;;19.70;77.10;;;;;;4960429;28;20023;-72
2021/07/24 05:06:06;;;;;;;8.43;5.13;;;20.00;76.40;;;;;;4976902;28;20027;-72
2021/07/24 05:08:33;;;;;;;5.20;4.70;;;20.30;75.90;;;;;;4981434;28;20222;-72
2021/07/24 05:10:58;;;;;;;7.20;4.43;;;20.50;74.90;;;;;;4964033;28;20031;-72
2021/07/24 05:13:24;;;;;;;6.35;4.50;;;20.70;74.20;;;;;;4981370;28;20030;-72
2021/07/24 05:15:51;;;;;;;7.53;5.85;;;21.00;73.80;;;;;;4979535;28;20093;-72
2021/07/24 05:18:17;;;;;;;9.15;3.60;;;21.20;73.50;;;;;;4989666;28;20121;-72
2021/07/24 05:20:42;;;;;;;6.88;4.45;;;21.40;72.30;;;;;;4979574;28;20110;-72
2021/07/24 05:23:09;;;;;;;7.05;5.45;;;21.70;72.20;;;;;;4977096;28;20050;-72
2021/07/24 05:25:35;;;;;;;8.07;4.63;;;21.60;70.60;;;;;;4970179;28;20035;-72
2021/07/24 05:28:00;;;;;;;6.82;4.68;;;21.60;70.40;;;;;;4963381;28;20591;-73
2021/07/24 05:30:26;;;;;;;6.75;5.68;;;21.70;70.00;;;;;;4972693;28;20043;-72
2021/07/24 05:32:51;;;;;;;9.98;7.00;;;21.80;69.30;;;;;;4979532;28;20034;-72
2021/07/24 05:35:17;;;;;;;6.93;5.35;;;22.00;69.30;;;;;;4979111;28;20042;-71
2021/07/24 05:37:42;;;;;;;5.38;4.15;;;22.30;68.80;;;;;;4979561;28;20023;-72
2021/07/24 05:40:09;;;;;;;5.57;4.45;;;22.50;68.10;;;;;;4977079;28;20113;-72
2021/07/24 05:42:34;;;;;;;9.35;6.78;;;22.70;67.70;;;;;;4979679;28;20034;-72
2021/07/24 05:45:00;;;;;;;10.95;5.38;;;22.70;67.20;;;;;;4980996;28;20029;-71
2021/07/24 05:47:25;;;;;;;8.32;4.60;;;22.70;67.20;;;;;;4980708;28;20552;-72
2021/07/24 05:49:51;;;;;;;7.30;3.97;;;22.60;67.10;;;;;;4976021;28;20034;-72
2021/07/24 05:52:16;;;;;;;7.10;3.90;;;22.20;67.20;;;;;;4990922;28;20394;-71
2021/07/24 05:54:42;;;;;;;4.65;4.15;;;21.90;67.60;;;;;;4974464;28;20433;-72
2021/07/24 05:57:07;;;;;;;12.07;7.65;;;21.50;68.30;;;;;;4980744;28;20061;-72
2021/07/24 05:59:34;;;;;;;6.80;4.07;;;21.50;68.80;;;;;;4977898;28;20561;-72
2021/07/24 06:01:59;;;;;;;12.15;5.10;;;21.50;69.30;;;;;;4963582;28;20519;-72
2021/07/24 06:04:25;;;;;;;17.05;9.32;;;21.60;69.50;;;;;;4962565;28;20043;-72
2021/07/24 06:06:50;;;;;;;6.07;4.93;;;21.80;69.20;;;;;;4977977;28;20018;-72
2021/07/24 06:09:16;;;;;;;8.15;5.13;;;21.90;69.10;;;;;;4977801;28;20026;-72
2021/07/24 06:11:41;;;;;;;9.35;4.88;;;21.80;68.80;;;;;;4978703;28;20043;-72
2021/07/24 06:14:07;;;;;;;8.07;4.22;;;21.70;69.10;;;;;;4977993;28;20558;-72
2021/07/24 06:16:32;;;;;;;6.82;4.43;;;21.90;69.10;;;;;;4977633;28;20026;-72
2021/07/24 06:19:01;;;;;;;4.93;3.38;;;21.90;69.10;;;;;;4976044;28;20038;-72
2021/07/24 06:21:26;;;;;;;6.43;4.70;;;22.00;68.80;;;;;;4980148;28;20034;-72
2021/07/24 06:23:52;;;;;;;7.95;5.10;;;21.90;69.10;;;;;;4978592;28;20030;-72
2021/07/24 06:26:17;;;;;;;8.18;6.57;;;21.90;69.20;;;;;;4977653;28;20023;-68
2021/07/24 06:28:43;;;;;;;7.65;4.15;;;21.90;69.30;;;;;;4978352;28;20413;-69
2021/07/24 06:31:08;;;;;;;8.82;4.00;;;21.80;69.30;;;;;;4978849;28;20113;-69
2021/07/24 06:33:34;;;;;;;5.13;4.30;;;21.80;69.50;;;;;;4976927;28;20113;-68
2021/07/24 06:36:00;;;;;;;5.15;4.05;;;21.70;69.40;;;;;;4978233;28;20058;-68
2021/07/24 06:38:26;;;;;;;12.75;5.70;;;21.40;70.10;;;;;;4978905;28;20461;-69
2021/07/24 06:40:52;;;;;;;8.25;5.10;;;21.40;71.10;;;;;;4994404;28;20018;-69
2021/07/24 06:43:17;;;;;;;4.82;4.38;;;21.50;71.10;;;;;;4980213;28;20027;-68
2021/07/24 06:45:43;;;;;;;6.55;4.43;;;21.50;71.30;;;;;;4979675;28;20081;-69
2021/07/24 06:48:08;;;;;;;8.88;5.72;;;21.60;71.50;;;;;;4979101;28;20037;-68
2021/07/24 06:50:34;;;;;;;5.88;4.22;;;21.60;71.40;;;;;;4978124;28;20038;-68
2021/07/24 06:53:00;;;;;;;6.45;4.07;;;21.30;72.20;;;;;;4991245;28;20054;-68
2021/07/24 06:55:26;;;;;;;6.97;4.38;;;21.40;72.70;;;;;;4976865;28;20035;-68
2021/07/24 06:57:51;;;;;;;6.15;4.80;;;21.40;73.10;;;;;;4977437;28;20121;-68
2021/07/24 07:00:17;;;;;;;8.95;4.28;;;21.30;73.40;;;;;;4973432;28;20109;-68
2021/07/24 07:02:43;;;;;;;6.10;4.55;;;21.30;73.60;;;;;;4979467;28;20156;-68
2021/07/24 07:05:09;;;;;;;10.82;4.68;;;21.50;73.30;;;;;;4983849;28;20386;-68
2021/07/24 07:07:35;;;;;;;8.45;4.25;;;21.60;73.00;;;;;;4982429;28;20030;-68
2021/07/24 07:10:01;;;;;;;9.60;4.88;;;21.60;71.80;;;;;;4982481;28;20030;-68
2021/07/24 07:12:27;;;;;;;6.35;3.65;;;21.60;71.30;;;;;;5005560;23;20050;-72
2021/07/24 07:14:52;;;;;;;5.22;3.20;;;21.70;71.10;;;;;;5002734;28;20121;-73
2021/07/24 07:17:18;;;;;;;5.05;3.75;;;21.80;70.50;;;;;;5002665;28;20104;-73
2021/07/24 07:19:43;;;;;;;7.40;3.55;;;21.80;70.00;;;;;;5001743;28;20253;-73
2021/07/24 07:22:09;;;;;;;6.68;3.38;;;21.80;69.50;;;;;;5000699;28;20041;-73
2021/07/24 07:24:35;;;;;;;3.28;2.63;;;21.70;69.80;;;;;;5002419;28;20051;-73
2021/07/24 07:27:01;;;;;;;4.05;3.60;;;21.70;69.00;;;;;;4985201;28;20169;-74
2021/07/24 07:29:27;;;;;;;4.95;3.28;;;21.60;69.50;;;;;;5002132;28;20032;-73
2021/07/24 07:31:52;;;;;;;6.55;3.63;;;21.60;69.50;;;;;;5001032;28;20030;-74
2021/07/24 07:34:18;;;;;;;9.05;4.65;;;21.70;70.20;;;;;;5002773;28;20030;-74
2021/07/24 07:36:44;;;;;;;5.60;4.07;;;22.00;70.00;;;;;;5002639;28;20489;-74
2021/07/24 07:39:09;;;;;;;8.48;3.60;;;22.10;69.60;;;;;;5000380;28;20080;-74
2021/07/24 07:41:36;;;;;;;4.65;3.90;;;22.10;69.70;;;;;;5001470;28;20388;-74
2021/07/24 07:44:01;;;;;;;4.85;4.18;;;22.00;69.70;;;;;;5002325;28;20539;-74
2021/07/24 07:46:27;;;;;;;7.60;3.15;;;22.00;70.20;;;;;;5002387;28;20117;-74
2021/07/24 07:48:52;;;;;;;6.18;3.63;;;22.10;70.40;;;;;;5002531;28;20420;-74
2021/07/24 07:51:18;;;;;;;10.23;6.68;;;22.20;70.10;;;;;;5002355;28;20038;-74
2021/07/24 07:53:43;;;;;;;5.55;4.47;;;22.30;69.30;;;;;;5000797;28;20022;-74
2021/07/24 07:56:11;;;;;;;6.18;4.10;;;22.20;69.40;;;;;;4984909;28;20505;-74
2021/07/24 07:58:37;;;;;;;5.00;3.83;;;22.00;70.20;;;;;;5000442;28;20426;-74
2021/07/24 08:01:10;;;;;;;7.75;4.07;;;22.10;70.50;;;;;;5001387;28;20476;-74
2021/07/24 08:03:35;;;;;;;6.85;4.45;;;22.30;70.20;;;;;;5002833;28;20105;-74
2021/07/24 08:06:01;;;;;;;7.60;4.13;;;22.50;69.60;;;;;;5002112;28;20153;-74
2021/07/24 08:08:26;;;;;;;5.55;4.45;;;22.70;69.60;;;;;;5000871;28;20101;-74
2021/07/24 08:10:52;;;;;;;8.43;4.15;;;22.70;69.50;;;;;;5001686;28;20049;-75
2021/07/24 08:13:18;;;;;;;6.10;4.25;;;22.70;69.80;;;;;;4983057;28;20037;-75
2021/07/24 08:15:44;;;;;;;10.25;4.93;;;22.70;69.50;;;;;;4999935;28;20075;-75
2021/07/24 08:18:10;;;;;;;7.45;4.70;;;22.70;70.00;;;;;;5000836;28;20033;-75
2021/07/24 08:20:39;;;;;;;4.85;4.35;;;22.90;70.10;;;;;;5000567;28;20030;-75
2021/07/24 08:23:05;;;;;;;4.68;3.88;;;23.20;70.10;;;;;;5001615;28;20053;-72
2021/07/24 08:25:31;;;;;;;10.73;5.03;;;23.40;68.30;;;;;;5001774;28;20392;-73
2021/07/24 08:28:00;;;;;;;5.68;4.50;;;23.30;68.70;;;;;;5000135;28;20026;-73
2021/07/24 08:30:25;;;;;;;6.55;4.30;;;23.40;69.30;;;;;;5001155;28;20026;-73
2021/07/24 08:32:51;;;;;;;7.68;4.85;;;23.50;69.00;;;;;;5001809;28;20030;-73
2021/07/24 08:35:16;;;;;;;6.72;4.97;;;23.90;68.70;;;;;;5001634;28;20032;-73
2021/07/24 08:37:42;;;;;;;6.80;4.72;;;24.10;68.50;;;;;;5001547;28;20030;-73
2021/07/24 08:40:08;;;;;;;5.75;4.68;;;24.10;68.10;;;;;;5000674;28;20040;-73
2021/07/24 08:42:41;;;;;;;7.35;5.20;;;24.20;67.40;;;;;;4998620;28;20041;-73
2021/07/24 08:45:21;;;;;;;4.65;4.15;;;24.20;67.80;;;;;;4983413;28;20101;-73
2021/07/24 08:47:47;;;;;;;7.57;5.40;;;24.40;67.50;;;;;;5002239;28;20027;-73
2021/07/24 08:50:13;;;;;;;7.03;5.45;;;24.50;67.60;;;;;;5001210;28;20653;-73
2021/07/24 08:52:39;;;;;;;6.78;5.47;;;24.90;67.00;;;;;;5001277;28;20081;-74
2021/07/24 08:55:07;;;;;;;9.75;4.63;;;25.10;65.30;;;;;;5001163;28;20518;-74
2021/07/24 08:57:39;;;;;;;7.75;5.47;;;25.10;64.40;;;;;;5000564;28;20080;-74
2021/07/24 09:00:12;;;;;;;7.72;5.80;;;25.10;65.40;;;;;;4999006;28;20041;-74
2021/07/24 09:02:45;;;;;;;9.20;5.43;;;25.20;65.40;;;;;;5000899;28;20428;-75
2021/07/24 09:05:13;;;;;;;8.45;5.60;;;25.30;65.60;;;;;;5000979;28;20022;-75
2021/07/24 09:07:40;;;;;;;17.52;5.85;;;25.60;65.70;;;;;;5000523;28;20049;-75
2021/07/24 09:10:08;;;;;;;8.68;5.35;;;25.70;65.30;;;;;;5000915;28;20053;-75
2021/07/24 09:12:36;;;;;;;7.57;5.90;;;25.80;62.90;;;;;;5000527;28;20033;-75
2021/07/24 09:15:03;;;;;;;8.00;5.97;;;25.90;63.40;;;;;;4975264;28;20117;-75
2021/07/24 09:17:29;;;;;;;8.40;5.75;;;26.00;63.80;;;;;;4999451;28;20044;-75
2021/07/24 09:19:56;;;;;;;9.40;6.78;;;26.20;63.10;;;;;;5000496;28;20029;-75
2021/07/24 09:22:28;;;;;;;7.30;6.25;;;26.40;63.30;;;;;;4974970;28;20448;-74
2021/07/24 09:25:03;;;;;;;9.80;7.32;;;26.40;62.30;;;;;;5000973;28;20025;-74
2021/07/24 09:27:29;;;;;;;9.80;6.57;;;26.30;61.40;;;;;;5000822;28;20030;-74
2021/07/24 09:29:54;;;;;;;10.10;7.05;;;26.20;61.80;;;;;;4999968;28;20359;-74
2021/07/24 09:32:20;;;;;;;8.45;7.47;;;26.20;61.60;;;;;;4998873;28;20034;-74
2021/07/24 09:34:46;;;;;;;10.10;8.02;;;26.20;61.90;;;;;;5000302;28;20038;-74
2021/07/24 09:37:27;;;;;;;9.48;7.28;;;26.30;60.90;;;;;;5000151;28;20027;-74
2021/07/24 09:39:54;;;;;;;9.90;7.57;;;26.20;60.90;;;;;;5000656;28;20038;-74
2021/07/24 09:42:20;;;;;;;11.48;7.97;;;26.20;61.70;;;;;;5000355;28;20465;-74
2021/07/24 09:44:46;;;;;;;14.57;7.57;;;26.60;61.10;;;;;;5000387;28;20041;-74
2021/07/24 09:47:28;;;;;;;11.18;8.23;;;26.80;60.20;;;;;;4974523;28;20484;-74
2021/07/24 09:50:15;;;;;;;11.77;8.32;;;27.00;61.20;;;;;;4999718;28;20073;-75
2021/07/24 09:52:51;;;;;;;9.88;8.43;;;27.30;59.80;;;;;;4998355;28;20026;-74
2021/07/24 09:55:21;;;;;;;13.93;10.77;;;27.30;59.60;;;;;;5000542;28;20484;-74
2021/07/24 09:57:47;;;;;;;10.57;8.73;;;27.50;60.70;;;;;;5000709;28;20702;-74
2021/07/24 10:00:30;;;;;;;11.13;9.95;;;27.60;58.90;;;;;;4999425;28;20036;-74
2021/07/24 10:03:03;;;;;;;12.27;8.50;;;27.80;58.60;;;;;;4999940;28;20033;-74
2021/07/24 10:05:41;;;;;;;13.77;10.30;;;27.80;58.90;;;;;;4982458;28;20022;-75
2021/07/24 10:08:12;;;;;;;14.23;11.38;;;28.00;58.80;;;;;;4998288;28;20040;-72
2021/07/24 10:10:39;;;;;;;11.38;9.13;;;28.10;55.90;;;;;;4999998;28;20452;-72
2021/07/24 10:13:09;;;;;;;14.45;9.35;;;27.80;56.40;;;;;;5000230;28;20080;-72
2021/07/24 10:15:37;;;;;;;11.32;8.63;;;27.60;58.30;;;;;;5000194;28;20049;-72
2021/07/24 10:18:05;;;;;;;19.40;15.32;;;27.70;57.80;;;;;;5000036;28;20027;-72
2021/07/24 10:20:35;;;;;;;19.65;13.13;;;27.60;56.40;;;;;;4998586;28;20116;-72
2021/07/24 10:23:00;;;;;;;12.40;9.88;;;27.50;56.50;;;;;;4999243;28;20030;-74
2021/07/24 10:25:27;;;;;;;10.45;8.75;;;27.40;57.10;;;;;;4999781;28;20409;-74
2021/07/24 10:27:54;;;;;;;9.13;8.23;;;27.50;56.80;;;;;;4998166;28;20100;-74
2021/07/24 10:30:28;;;;;;;13.18;9.05;;;27.60;57.40;;;;;;4998505;28;20022;-74
2021/07/24 10:32:56;;;;;;;12.18;9.65;;;27.90;57.50;;;;;;4999650;28;20052;-74
2021/07/24 10:35:42;;;;;;;13.32;7.55;;;28.20;57.50;;;;;;5000008;28;20074;-74
2021/07/24 10:38:30;;;;;;;9.70;8.07;;;28.60;57.90;;;;;;4999119;28;20045;-74
2021/07/24 10:41:21;;;;;;;13.20;8.75;;;28.90;54.20;;;;;;4999634;28;20037;-75
2021/07/24 10:44:07;;;;;;;12.00;9.13;;;28.50;54.00;;;;;;4998569;28;20029;-75
2021/07/24 10:46:44;;;;;;;11.20;9.27;;;28.10;54.80;;;;;;4999965;28;20010;-75
2021/07/24 10:49:22;;;;;;;12.23;8.88;;;28.10;55.70;;;;;;4998329;28;20036;-75
2021/07/24 10:51:58;;;;;;;17.50;11.50;;;28.30;55.00;;;;;;4999430;28;20018;-76
2021/07/24 10:54:24;;;;;;;14.32;10.05;;;28.30;54.10;;;;;;4999890;28;20081;-76
2021/07/24 10:56:50;;;;;;;11.98;9.70;;;28.10;55.30;;;;;;5000381;28;20049;-76
2021/07/24 10:59:29;;;;;;;15.07;10.43;;;28.10;54.40;;;;;;4999171;28;20030;-75
2021/07/24 11:01:58;;;;;;;14.82;12.93;;;28.10;55.20;;;;;;4999928;28;20036;-76
2021/07/24 11:04:36;;;;;;;19.67;15.48;;;28.10;54.90;;;;;;4998098;28;20516;-76
2021/07/24 11:09:51;;;;;;;14.70;9.98;;;28.30;54.20;;;;;;4997588;28;20063;-75
2021/07/24 11:12:17;;;;;;;11.63;9.57;;;28.40;53.20;;;;;;4999367;28;20041;-75
2021/07/24 11:14:49;;;;;;;11.70;10.23;;;28.50;54.10;;;;;;4999371;28;20026;-75
2021/07/24 11:17:16;;;;;;;13.05;10.88;;;28.70;54.50;;;;;;4999682;28;20054;-75
2021/07/24 11:19:49;;;;;;;10.27;9.23;;;29.10;54.20;;;;;;4998779;28;20038;-75
2021/07/24 11:22:14;;;;;;;12.00;10.38;;;29.20;52.20;;;;;;4988715;28;20031;-75
2021/07/24 11:24:43;;;;;;;13.38;10.35;;;29.20;51.70;;;;;;4998909;28;20021;-75
2021/07/24 11:27:09;;;;;;;12.27;9.38;;;29.10;52.00;;;;;;4998924;28;20022;-75
2021/07/24 11:29:35;;;;;;;13.52;10.40;;;29.30;52.50;;;;;;4999386;28;20076;-75
2021/07/24 11:32:02;;;;;;;15.90;13.30;;;29.60;53.20;;;;;;4998503;28;20469;-75
2021/07/24 11:34:30;;;;;;;16.60;14.13;;;29.60;51.30;;;;;;4981919;28;20085;-75
2021/07/24 11:36:57;;;;;;;13.55;10.30;;;29.60;50.60;;;;;;4998373;28;20472;-74
2021/07/24 11:39:23;;;;;;;10.43;9.20;;;29.40;50.30;;;;;;4994922;28;20026;-78
2021/07/24 11:41:50;;;;;;;14.10;9.35;;;29.20;50.80;;;;;;4999798;28;20661;-83
2021/07/24 11:44:30;;;;;;;12.48;9.77;;;29.10;51.60;;;;;;5000407;28;20100;-76
2021/07/24 11:47:03;;;;;;;10.60;8.68;;;29.30;51.40;;;;;;5001286;28;20041;-78
2021/07/24 11:49:30;;;;;;;12.23;8.68;;;29.40;51.60;;;;;;4988712;28;20026;-81
2021/07/24 11:51:56;;;;;;;11.70;9.40;;;29.60;50.90;;;;;;4993470;28;20034;-80
2021/07/24 11:54:35;;;;;;;10.80;9.70;;;29.80;50.70;;;;;;5002795;28;20247;-84
2021/07/24 11:57:04;;;;;;;11.82;9.95;;;29.90;50.30;;;;;;5002190;28;20113;-84
2021/07/24 11:59:31;;;;;;;15.02;9.85;;;29.80;50.00;;;;;;4998268;28;20033;-82
2021/07/24 12:01:57;;;;;;;12.85;9.77;;;29.70;50.50;;;;;;4996599;28;20085;-81
2021/07/24 12:04:23;;;;;;;11.45;8.98;;;29.80;50.60;;;;;;4999697;28;20025;-82
2021/07/24 12:07:01;;;;;;;11.23;8.68;;;29.80;50.80;;;;;;4996554;28;20101;-81
2021/07/24 12:09:27;;;;;;;15.20;11.05;;;30.00;49.40;;;;;;4999686;28;20040;-81
2021/07/24 12:11:55;;;;;;;11.48;10.27;;;30.10;50.10;;;;;;4995119;28;20026;-80
2021/07/24 12:14:25;;;;;;;12.77;9.75;;;30.30;49.80;;;;;;4998333;28;20511;-81
2021/07/24 12:17:10;;;;;;;14.88;10.90;;;30.30;49.20;;;;;;4995825;28;20030;-83
2021/07/24 12:19:43;;;;;;;14.60;12.70;;;30.40;48.90;;;;;;4998117;28;20106;-82
2021/07/24 12:22:17;;;;;;;56.33;44.28;;;30.40;48.80;;;;;;5000632;28;20519;-81
2021/07/24 12:24:43;;;;;;;23.30;18.35;;;30.50;48.80;;;;;;4978917;28;20085;-83
2021/07/24 12:27:14;;;;;;;25.38;20.63;;;30.60;48.20;;;;;;4999764;28;20486;-83
2021/07/24 12:29:53;;;;;;;13.98;12.57;;;30.40;47.90;;;;;;4995559;28;20037;-82
2021/07/24 12:32:21;;;;;;;16.90;13.18;;;30.30;48.60;;;;;;5001847;28;20497;-82
2021/07/24 12:34:50;;;;;;;18.05;15.85;;;30.30;48.30;;;;;;5010177;28;20101;-84
2021/07/24 12:37:29;;;;;;;16.23;10.63;;;30.40;48.60;;;;;;4993877;28;20026;-79
2021/07/24 12:39:55;;;;;;;21.95;18.52;;;30.50;48.30;;;;;;4996999;28;20029;-79
2021/07/24 12:42:33;;;;;;;18.95;16.25;;;30.60;47.90;;;;;;4999885;28;20046;-79
2021/07/24 12:44:59;;;;;;;19.85;12.55;;;30.50;47.40;;;;;;4999946;28;20033;-79
2021/07/24 12:47:26;;;;;;;18.08;13.98;;;30.70;48.20;;;;;;5003554;28;20357;-79
2021/07/24 12:49:53;;;;;;;14.70;12.05;;;30.80;48.40;;;;;;4999646;28;20029;-82